sensor_id;sensor_type;location;lat;lon;timestamp;pressure;altitude;pressure_sealevel;temperature;humidity
56334;BME280;42240;53.626;55.886;2024-01-15T00:00:43;80509.56;;;-145.10;97.75
56334;BME280;42240;53.626;55.886;2024-01-15T00:02:16;80507.56;;;-145.10;97.60
56334;BME280;42240;53.626;55.886;2024-01-15T00:03:49;80511.53;;;-145.10;97.23
56334;BME280;42240;53.626;55.886;2024-01-15T00:05:39;80523.41;;;-145.10;98.05
56334;BME280;42240;53.626;55.886;2024-01-15T00:07:12;80505.59;;;-145.10;97.59
56334;BME280;42240;53.626;55.886;2024-01-15T00:08:44;80493.72;;;-145.10;97.81
56334;BME280;42240;53.626;55.886;2024-01-15T00:10:34;80515.50;;;-145.10;96.93
56334;BME280;42240;53.626;55.886;2024-01-15T00:12:07;80505.59;;;-145.10;97.46
56334;BME280;42240;53.626;55.886;2024-01-15T00:13:39;80509.56;;;-145.10;97.09
56334;BME280;42240;53.626;55.886;2024-01-15T00:15:12;80531.31;;;-145.10;96.87
56334;BME280;42240;53.626;55.886;2024-01-15T00:16:45;80519.44;;;-145.10;96.74
56334;BME280;42240;53.626;55.886;2024-01-15T00:18:18;80503.63;;;-145.10;97.06
56334;BME280;42240;53.626;55.886;2024-01-15T00:19:51;80521.44;;;-145.10;96.51
56334;BME280;42240;53.626;55.886;2024-01-15T00:21:24;80525.38;;;-145.10;96.24
56334;BME280;42240;53.626;55.886;2024-01-15T00:22:57;80523.41;;;-145.10;96.86
56334;BME280;42240;53.626;55.886;2024-01-15T00:24:30;80523.41;;;-145.10;96.73
56334;BME280;42240;53.626;55.886;2024-01-15T00:26:21;80501.63;;;-145.10;96.90
56334;BME280;42240;53.626;55.886;2024-01-15T00:27:54;80513.50;;;-145.10;96.99
56334;BME280;42240;53.626;55.886;2024-01-15T00:29:26;80515.50;;;-145.10;96.73
56334;BME280;42240;53.626;55.886;2024-01-15T00:30:59;80521.44;;;-145.10;95.95
56334;BME280;42240;53.626;55.886;2024-01-15T00:32:32;80517.47;;;-145.10;95.92
56334;BME280;42240;53.626;55.886;2024-01-15T00:34:05;80529.34;;;-145.10;96.34
56334;BME280;42240;53.626;55.886;2024-01-15T00:35:38;80529.34;;;-145.10;96.29
56334;BME280;42240;53.626;55.886;2024-01-15T00:37:11;80547.16;;;-145.10;96.67
56334;BME280;42240;53.626;55.886;2024-01-15T00:38:44;80561.00;;;-145.10;96.26
56334;BME280;42240;53.626;55.886;2024-01-15T00:40:18;80578.81;;;-145.10;96.51
56334;BME280;42240;53.626;55.886;2024-01-15T00:41:50;80537.25;;;-145.10;96.70
56334;BME280;42240;53.626;55.886;2024-01-15T00:43:23;80549.13;;;-145.10;96.26
56334;BME280;42240;53.626;55.886;2024-01-15T00:44:56;80515.50;;;-145.10;96.56
56334;BME280;42240;53.626;55.886;2024-01-15T00:46:29;80537.25;;;-145.10;96.67
56334;BME280;42240;53.626;55.886;2024-01-15T00:48:01;80533.31;;;-145.10;96.23
56334;BME280;42240;53.626;55.886;2024-01-15T00:49:34;80555.06;;;-145.10;96.67
56334;BME280;42240;53.626;55.886;2024-01-15T00:51:07;80533.31;;;-145.10;96.31
56334;BME280;42240;53.626;55.886;2024-01-15T00:52:40;80529.34;;;-145.10;95.81
56334;BME280;42240;53.626;55.886;2024-01-15T00:54:13;80568.94;;;-145.10;95.51
56334;BME280;42240;53.626;55.886;2024-01-15T00:55:45;80539.25;;;-145.10;96.31
56334;BME280;42240;53.626;55.886;2024-01-15T00:57:18;80551.13;;;-145.10;96.44
56334;BME280;42240;53.626;55.886;2024-01-15T00:58:51;80555.06;;;-145.10;96.09
56334;BME280;42240;53.626;55.886;2024-01-15T01:00:24;80568.94;;;-145.10;96.62
56334;BME280;42240;53.626;55.886;2024-01-15T01:01:57;80604.56;;;-145.10;97.75
56334;BME280;42240;53.626;55.886;2024-01-15T01:03:48;80596.66;;;-145.10;98.22
56334;BME280;42240;53.626;55.886;2024-01-15T01:05:21;80598.63;;;-145.10;98.46
56334;BME280;42240;53.626;55.886;2024-01-15T01:06:54;80590.72;;;-145.10;98.65
56334;BME280;42240;53.626;55.886;2024-01-15T01:10:36;80576.84;;;-145.10;98.72
56334;BME280;42240;53.626;55.886;2024-01-15T01:12:09;80570.91;;;-145.10;98.76
56334;BME280;42240;53.626;55.886;2024-01-15T01:13:42;80561.00;;;-145.10;98.77
56334;BME280;42240;53.626;55.886;2024-01-15T01:15:15;80614.47;;;-145.10;98.75
56334;BME280;42240;53.626;55.886;2024-01-15T01:16:48;80584.75;;;-145.10;98.32
56334;BME280;42240;53.626;55.886;2024-01-15T01:18:20;80578.81;;;-145.10;98.99
56334;BME280;42240;53.626;55.886;2024-01-15T01:19:53;80566.94;;;-145.10;98.84
56334;BME280;42240;53.626;55.886;2024-01-15T01:21:26;80570.91;;;-145.10;98.74
56334;BME280;42240;53.626;55.886;2024-01-15T01:22:59;80561.00;;;-145.10;98.97
56334;BME280;42240;53.626;55.886;2024-01-15T01:24:32;80568.94;;;-145.10;98.95
56334;BME280;42240;53.626;55.886;2024-01-15T01:26:05;80578.81;;;-145.10;99.66
56334;BME280;42240;53.626;55.886;2024-01-15T01:27:38;80598.63;;;-145.10;99.38
56334;BME280;42240;53.626;55.886;2024-01-15T01:29:11;80592.69;;;-145.10;99.84
56334;BME280;42240;53.626;55.886;2024-01-15T01:30:43;80596.66;;;-145.10;100.00
56334;BME280;42240;53.626;55.886;2024-01-15T01:32:16;80590.72;;;-145.10;100.00
56334;BME280;42240;53.626;55.886;2024-01-15T01:35:40;80608.53;;;-145.10;100.00
56334;BME280;42240;53.626;55.886;2024-01-15T01:37:31;80604.56;;;-145.10;100.00
56334;BME280;42240;53.626;55.886;2024-01-15T01:39:05;80606.53;;;-145.10;100.00
56334;BME280;42240;53.626;55.886;2024-01-15T01:40:38;80592.69;;;-145.10;100.00
56334;BME280;42240;53.626;55.886;2024-01-15T01:42:12;80600.59;;;-145.10;100.00
56334;BME280;42240;53.626;55.886;2024-01-15T01:44:02;80602.59;;;-145.10;100.00
56334;BME280;42240;53.626;55.886;2024-01-15T01:45:56;80582.78;;;-145.10;100.00
56334;BME280;42240;53.626;55.886;2024-01-15T01:47:31;80596.66;;;-145.10;100.00
56334;BME280;42240;53.626;55.886;2024-01-15T01:49:04;80596.66;;;-145.10;100.00
56334;BME280;42240;53.626;55.886;2024-01-15T01:50:39;80592.69;;;-145.10;100.00
56334;BME280;42240;53.626;55.886;2024-01-15T01:52:12;80594.66;;;-145.10;100.00
56334;BME280;42240;53.626;55.886;2024-01-15T01:53:45;80604.56;;;-145.10;100.00
56334;BME280;42240;53.626;55.886;2024-01-15T01:55:18;80600.59;;;-145.10;100.00
56334;BME280;42240;53.626;55.886;2024-01-15T01:56:51;80604.56;;;-145.10;100.00
56334;BME280;42240;53.626;55.886;2024-01-15T01:58:25;80612.47;;;-145.10;100.00
56334;BME280;42240;53.626;55.886;2024-01-15T01:59:58;80608.53;;;-145.10;100.00
56334;BME280;42240;53.626;55.886;2024-01-15T02:01:31;80610.50;;;-145.10;100.00
56334;BME280;42240;53.626;55.886;2024-01-15T02:03:04;80634.25;;;-145.10;100.00
56334;BME280;42240;53.626;55.886;2024-01-15T02:04:37;80630.28;;;-145.10;100.00
56334;BME280;42240;53.626;55.886;2024-01-15T02:06:10;80630.28;;;-145.10;100.00
56334;BME280;42240;53.626;55.886;2024-01-15T02:08:02;80663.94;;;-145.10;100.00
56334;BME280;42240;53.626;55.886;2024-01-15T02:09:35;80648.09;;;-145.10;100.00
56334;BME280;42240;53.626;55.886;2024-01-15T02:11:26;80650.09;;;-145.10;100.00
56334;BME280;42240;53.626;55.886;2024-01-15T02:12:59;80671.88;;;-145.10;100.00
56334;BME280;42240;53.626;55.886;2024-01-15T02:14:32;80659.97;;;-145.10;100.00
56334;BME280;42240;53.626;55.886;2024-01-15T02:16:04;80671.88;;;-145.10;100.00
56334;BME280;42240;53.626;55.886;2024-01-15T02:18:05;80675.81;;;-145.10;100.00
56334;BME280;42240;53.626;55.886;2024-01-15T02:19:40;80711.44;;;-145.10;100.00
56334;BME280;42240;53.626;55.886;2024-01-15T02:21:13;80685.72;;;-145.10;100.00
56334;BME280;42240;53.626;55.886;2024-01-15T02:22:46;80727.28;;;-145.10;100.00
56334;BME280;42240;53.626;55.886;2024-01-15T02:24:19;80729.25;;;-145.10;100.00
56334;BME280;42240;53.626;55.886;2024-01-15T02:25:51;80735.19;;;-145.10;100.00
56334;BME280;42240;53.626;55.886;2024-01-15T02:27:42;80735.19;;;-145.10;100.00
56334;BME280;42240;53.626;55.886;2024-01-15T02:29:17;80766.88;;;-145.10;100.00
56334;BME280;42240;53.626;55.886;2024-01-15T02:30:50;80778.75;;;-145.10;100.00
56334;BME280;42240;53.626;55.886;2024-01-15T02:32:23;80762.91;;;-145.10;100.00
56334;BME280;42240;53.626;55.886;2024-01-15T02:33:55;80786.66;;;-145.10;100.00
56334;BME280;42240;53.626;55.886;2024-01-15T02:35:28;80786.66;;;-145.10;100.00
56334;BME280;42240;53.626;55.886;2024-01-15T02:37:01;80727.28;;;-145.10;100.00
56334;BME280;42240;53.626;55.886;2024-01-15T02:38:34;80755.00;;;-145.10;100.00
56334;BME280;42240;53.626;55.886;2024-01-15T02:40:07;80776.78;;;-145.10;100.00
56334;BME280;42240;53.626;55.886;2024-01-15T02:41:40;80762.91;;;-145.10;100.00
56334;BME280;42240;53.626;55.886;2024-01-15T02:43:14;80770.84;;;-145.10;100.00
56334;BME280;42240;53.626;55.886;2024-01-15T02:44:46;80774.78;;;-145.10;100.00
56334;BME280;42240;53.626;55.886;2024-01-15T02:46:20;80790.63;;;-145.10;100.00
56334;BME280;42240;53.626;55.886;2024-01-15T02:48:12;80774.78;;;-145.10;100.00
56334;BME280;42240;53.626;55.886;2024-01-15T02:49:45;80790.63;;;-145.10;100.00
56334;BME280;42240;53.626;55.886;2024-01-15T02:53:28;80806.47;;;-145.10;100.00
56334;BME280;42240;53.626;55.886;2024-01-15T02:55:00;80806.47;;;-145.10;100.00
56334;BME280;42240;53.626;55.886;2024-01-15T02:56:34;80790.63;;;-145.10;100.00
56334;BME280;42240;53.626;55.886;2024-01-15T02:58:07;80814.38;;;-145.10;100.00
56334;BME280;42240;53.626;55.886;2024-01-15T02:59:59;80812.41;;;-145.10;100.00
56334;BME280;42240;53.626;55.886;2024-01-15T03:01:32;80802.50;;;-145.10;100.00
56334;BME280;42240;53.626;55.886;2024-01-15T03:03:05;80857.94;;;-145.10;100.00
56334;BME280;42240;53.626;55.886;2024-01-15T03:04:42;80822.28;;;-145.10;100.00
56334;BME280;42240;53.626;55.886;2024-01-15T03:06:50;80832.19;;;-145.10;100.00
56334;BME280;42240;53.626;55.886;2024-01-15T03:08:23;80822.28;;;-145.10;100.00
56334;BME280;42240;53.626;55.886;2024-01-15T03:09:56;80824.28;;;-145.10;100.00
56334;BME280;42240;53.626;55.886;2024-01-15T03:11:29;80846.06;;;-145.10;100.00
56334;BME280;42240;53.626;55.886;2024-01-15T03:13:01;80850.00;;;-145.10;100.00
56334;BME280;42240;53.626;55.886;2024-01-15T03:14:35;80857.94;;;-145.10;100.00
56334;BME280;42240;53.626;55.886;2024-01-15T03:16:08;80865.84;;;-145.10;100.00
56334;BME280;42240;53.626;55.886;2024-01-15T03:17:59;80881.69;;;-145.10;100.00
56334;BME280;42240;53.626;55.886;2024-01-15T03:19:34;80859.91;;;-145.10;100.00
56334;BME280;42240;53.626;55.886;2024-01-15T03:23:35;80873.75;;;-145.10;99.50
56334;BME280;42240;53.626;55.886;2024-01-15T03:25:08;80901.47;;;-145.10;99.28
56334;BME280;42240;53.626;55.886;2024-01-15T03:26:41;80905.44;;;-145.10;99.00
56334;BME280;42240;53.626;55.886;2024-01-15T03:28:14;80937.09;;;-145.10;98.60
56334;BME280;42240;53.626;55.886;2024-01-15T03:29:47;80925.22;;;-145.10;99.43
56334;BME280;42240;53.626;55.886;2024-01-15T03:31:20;80925.22;;;-145.10;98.90
56334;BME280;42240;53.626;55.886;2024-01-15T03:32:52;80925.22;;;-145.10;99.19
56334;BME280;42240;53.626;55.886;2024-01-15T03:34:25;80939.09;;;-145.10;99.10
56334;BME280;42240;53.626;55.886;2024-01-15T03:35:58;80933.16;;;-145.10;99.33
56334;BME280;42240;53.626;55.886;2024-01-15T03:37:31;80933.16;;;-145.10;99.41
56334;BME280;42240;53.626;55.886;2024-01-15T03:39:04;80945.03;;;-145.10;99.46
56334;BME280;42240;53.626;55.886;2024-01-15T03:40:37;80939.09;;;-145.10;99.20
56334;BME280;42240;53.626;55.886;2024-01-15T03:42:10;80992.53;;;-145.10;99.07
56334;BME280;42240;53.626;55.886;2024-01-15T03:43:43;80960.88;;;-145.10;99.24
56334;BME280;42240;53.626;55.886;2024-01-15T03:45:15;80968.78;;;-145.10;98.55
56334;BME280;42240;53.626;55.886;2024-01-15T03:46:48;80972.75;;;-145.10;98.72
56334;BME280;42240;53.626;55.886;2024-01-15T03:48:21;80966.81;;;-145.10;98.39
56334;BME280;42240;53.626;55.886;2024-01-15T03:49:54;80984.63;;;-145.10;98.42
56334;BME280;42240;53.626;55.886;2024-01-15T03:51:27;81016.28;;;-145.10;98.73
56334;BME280;42240;53.626;55.886;2024-01-15T03:53:00;81002.44;;;-145.10;98.78
56334;BME280;42240;53.626;55.886;2024-01-15T03:54:51;80968.78;;;-145.10;99.06
56334;BME280;42240;53.626;55.886;2024-01-15T03:56:24;80980.66;;;-145.10;98.56
56334;BME280;42240;53.626;55.886;2024-01-15T03:57:57;80974.72;;;-145.10;98.64
56334;BME280;42240;53.626;55.886;2024-01-15T03:59:29;80984.63;;;-145.10;98.64
56334;BME280;42240;53.626;55.886;2024-01-15T04:01:02;80982.63;;;-145.10;98.57
56334;BME280;42240;53.626;55.886;2024-01-15T04:02:36;80972.75;;;-145.10;98.44
56334;BME280;42240;53.626;55.886;2024-01-15T04:04:08;80980.66;;;-145.10;98.20
56334;BME280;42240;53.626;55.886;2024-01-15T04:05:41;80986.59;;;-145.10;97.92
56334;BME280;42240;53.626;55.886;2024-01-15T04:07:14;80996.50;;;-145.10;97.99
56334;BME280;42240;53.626;55.886;2024-01-15T04:08:47;80980.66;;;-145.10;97.43
56334;BME280;42240;53.626;55.886;2024-01-15T04:10:20;80986.59;;;-145.10;97.40
56334;BME280;42240;53.626;55.886;2024-01-15T04:11:53;81000.47;;;-145.10;97.98
56334;BME280;42240;53.626;55.886;2024-01-15T04:13:26;80958.88;;;-145.10;97.62
56334;BME280;42240;53.626;55.886;2024-01-15T04:15:17;80949.00;;;-145.10;96.95
56334;BME280;42240;53.626;55.886;2024-01-15T04:16:50;80949.00;;;-145.10;96.89
56334;BME280;42240;53.626;55.886;2024-01-15T04:18:23;80945.03;;;-145.10;96.65
56334;BME280;42240;53.626;55.886;2024-01-15T04:19:56;80925.22;;;-145.10;97.33
56334;BME280;42240;53.626;55.886;2024-01-15T04:21:47;80927.22;;;-145.10;96.47
56334;BME280;42240;53.626;55.886;2024-01-15T04:23:39;80931.16;;;-145.10;97.20
56334;BME280;42240;53.626;55.886;2024-01-15T04:25:12;80964.81;;;-145.10;97.18
56334;BME280;42240;53.626;55.886;2024-01-15T04:26:45;80945.03;;;-145.10;97.31
56334;BME280;42240;53.626;55.886;2024-01-15T04:28:18;80921.28;;;-145.10;96.84
56334;BME280;42240;53.626;55.886;2024-01-15T04:29:50;80933.16;;;-145.10;96.46
56334;BME280;42240;53.626;55.886;2024-01-15T04:31:24;80949.00;;;-145.10;96.38
56334;BME280;42240;53.626;55.886;2024-01-15T04:33:00;80939.09;;;-145.10;96.55
56334;BME280;42240;53.626;55.886;2024-01-15T04:34:33;80978.69;;;-145.10;96.51
56334;BME280;42240;53.626;55.886;2024-01-15T04:36:06;80958.88;;;-145.10;96.91
56334;BME280;42240;53.626;55.886;2024-01-15T04:37:42;80960.88;;;-145.10;97.11
56334;BME280;42240;53.626;55.886;2024-01-15T04:39:15;80964.81;;;-145.10;96.72
56334;BME280;42240;53.626;55.886;2024-01-15T04:40:48;80966.81;;;-145.10;96.46
56334;BME280;42240;53.626;55.886;2024-01-15T04:42:21;80976.69;;;-145.10;96.92
56334;BME280;42240;53.626;55.886;2024-01-15T04:44:12;80937.09;;;-145.10;96.32
56334;BME280;42240;53.626;55.886;2024-01-15T04:45:45;80970.75;;;-145.10;95.84
56334;BME280;42240;53.626;55.886;2024-01-15T04:47:18;80986.59;;;-145.10;95.56
56334;BME280;42240;53.626;55.886;2024-01-15T04:50:42;80980.66;;;-145.10;95.40
56334;BME280;42240;53.626;55.886;2024-01-15T04:52:15;80964.81;;;-145.10;95.17
56334;BME280;42240;53.626;55.886;2024-01-15T04:54:06;80950.97;;;-145.10;94.73
56334;BME280;42240;53.626;55.886;2024-01-15T04:59:21;80962.84;;;-145.10;94.48
56334;BME280;42240;53.626;55.886;2024-01-15T05:00:53;80976.69;;;-145.10;93.77
56334;BME280;42240;53.626;55.886;2024-01-15T05:02:43;80968.78;;;-145.10;93.69
56334;BME280;42240;53.626;55.886;2024-01-15T05:04:16;80935.13;;;-145.10;93.58
56334;BME280;42240;53.626;55.886;2024-01-15T05:05:49;80939.09;;;-145.10;93.60
56334;BME280;42240;53.626;55.886;2024-01-15T05:07:22;80911.38;;;-145.10;93.55
56334;BME280;42240;53.626;55.886;2024-01-15T05:09:13;80907.41;;;-145.10;93.70
56334;BME280;42240;53.626;55.886;2024-01-15T05:10:47;80960.88;;;-145.10;92.84
56334;BME280;42240;53.626;55.886;2024-01-15T05:12:38;80869.81;;;-145.10;92.95
56334;BME280;42240;53.626;55.886;2024-01-15T05:14:10;80853.97;;;-145.10;92.43
56334;BME280;42240;53.626;55.886;2024-01-15T05:16:02;80814.38;;;-145.10;91.45
56334;BME280;42240;53.626;55.886;2024-01-15T05:17:35;80834.19;;;-145.10;90.72
56334;BME280;42240;53.626;55.886;2024-01-15T05:19:07;80867.81;;;-145.10;89.72
56334;BME280;42240;53.626;55.886;2024-01-15T05:20:41;80861.88;;;-145.10;90.04
56334;BME280;42240;53.626;55.886;2024-01-15T05:22:14;80871.78;;;-145.10;90.07
56334;BME280;42240;53.626;55.886;2024-01-15T05:23:47;80861.88;;;-145.10;89.83
56334;BME280;42240;53.626;55.886;2024-01-15T05:25:20;80836.16;;;-145.10;89.78
56334;BME280;42240;53.626;55.886;2024-01-15T05:26:53;80844.06;;;-145.10;89.50
56334;BME280;42240;53.626;55.886;2024-01-15T05:28:44;80804.47;;;-145.10;89.13
56334;BME280;42240;53.626;55.886;2024-01-15T05:30:17;80780.72;;;-145.10;88.00
56334;BME280;42240;53.626;55.886;2024-01-15T05:31:50;80733.22;;;-145.10;87.71
56334;BME280;42240;53.626;55.886;2024-01-15T05:33:23;80737.19;;;-145.10;86.91
56334;BME280;42240;53.626;55.886;2024-01-15T05:34:56;80679.78;;;-145.10;85.80
56334;BME280;42240;53.626;55.886;2024-01-15T05:36:47;80652.06;;;-145.10;84.65
56334;BME280;42240;53.626;55.886;2024-01-15T05:38:20;80658.00;;;-145.10;83.41
56334;BME280;42240;53.626;55.886;2024-01-15T05:39:53;80624.34;;;-145.10;81.88
56334;BME280;42240;53.626;55.886;2024-01-15T05:41:44;80606.53;;;-145.10;82.05
56334;BME280;42240;53.626;55.886;2024-01-15T05:45:08;80469.97;;;-145.10;78.42
56334;BME280;42240;53.626;55.886;2024-01-15T05:47:00;80361.09;;;-145.10;76.69
56334;BME280;42240;53.626;55.886;2024-01-15T05:48:52;80303.72;;;-145.10;72.63
56334;BME280;42240;53.626;55.886;2024-01-15T05:50:25;80262.16;;;-145.10;70.57
56334;BME280;42240;53.626;55.886;2024-01-15T05:51:57;80277.97;;;-145.10;68.04
56334;BME280;42240;53.626;55.886;2024-01-15T05:53:30;80250.28;;;-145.10;66.41
56334;BME280;42240;53.626;55.886;2024-01-15T05:55:04;80165.16;;;-145.10;64.82
56334;BME280;42240;53.626;55.886;2024-01-15T05:56:37;80184.97;;;-145.10;62.35
56334;BME280;42240;53.626;55.886;2024-01-15T05:58:09;80137.47;;;-145.10;61.57
56334;BME280;42240;53.626;55.886;2024-01-15T05:59:44;80177.03;;;-145.10;59.88
56334;BME280;42240;53.626;55.886;2024-01-15T06:01:17;80192.88;;;-145.10;58.72
56334;BME280;42240;53.626;55.886;2024-01-15T06:02:50;80173.09;;;-145.10;58.55
56334;BME280;42240;53.626;55.886;2024-01-15T06:04:22;80200.78;;;-145.10;57.60
56334;BME280;42240;53.626;55.886;2024-01-15T06:05:55;80175.06;;;-145.10;56.84
56334;BME280;42240;53.626;55.886;2024-01-15T06:07:29;80161.22;;;-145.10;56.22
56334;BME280;42240;53.626;55.886;2024-01-15T06:10:53;80040.47;;;-145.10;55.39
56334;BME280;42240;53.626;55.886;2024-01-15T06:12:32;80109.75;;;-145.10;54.51
56334;BME280;42240;53.626;55.886;2024-01-15T06:14:06;80268.09;;;-145.10;54.20
56334;BME280;42240;53.626;55.886;2024-01-15T06:15:38;80301.72;;;-145.10;54.24
56334;BME280;42240;53.626;55.886;2024-01-15T06:19:03;80145.38;;;-145.10;54.53
56334;BME280;42240;53.626;55.886;2024-01-15T06:20:36;80060.28;;;-145.10;55.45
56334;BME280;42240;53.626;55.886;2024-01-15T06:22:10;80105.78;;;-145.10;53.83
56334;BME280;42240;53.626;55.886;2024-01-15T06:23:43;80099.84;;;-145.10;53.41
56334;BME280;42240;53.626;55.886;2024-01-15T06:25:16;80161.22;;;-145.10;53.09
56334;BME280;42240;53.626;55.886;2024-01-15T06:27:07;80089.97;;;-145.10;53.49
56334;BME280;42240;53.626;55.886;2024-01-15T06:28:40;80173.09;;;-145.10;53.30
56334;BME280;42240;53.626;55.886;2024-01-15T06:30:13;80188.91;;;-145.10;53.16
56334;BME280;42240;53.626;55.886;2024-01-15T06:31:46;80177.03;;;-145.10;53.28
56334;BME280;42240;53.626;55.886;2024-01-15T06:33:19;80236.41;;;-145.10;53.40
56334;BME280;42240;53.626;55.886;2024-01-15T06:34:52;80250.28;;;-145.10;53.82
56334;BME280;42240;53.626;55.886;2024-01-15T06:36:25;80291.84;;;-145.10;53.90
56334;BME280;42240;53.626;55.886;2024-01-15T06:37:57;80220.56;;;-145.10;54.31
56334;BME280;42240;53.626;55.886;2024-01-15T06:39:30;80248.28;;;-145.10;54.10
56334;BME280;42240;53.626;55.886;2024-01-15T06:41:21;80279.97;;;-145.10;54.62
56334;BME280;42240;53.626;55.886;2024-01-15T06:42:54;80276.00;;;-145.10;54.94
56334;BME280;42240;53.626;55.886;2024-01-15T06:44:27;80262.16;;;-145.10;55.70
56334;BME280;42240;53.626;55.886;2024-01-15T06:46:00;80295.78;;;-145.10;55.42
56334;BME280;42240;53.626;55.886;2024-01-15T06:47:38;80272.03;;;-145.10;55.48
56334;BME280;42240;53.626;55.886;2024-01-15T06:49:11;80293.81;;;-145.10;55.93
56334;BME280;42240;53.626;55.886;2024-01-15T06:50:45;80264.13;;;-145.10;57.08
56334;BME280;42240;53.626;55.886;2024-01-15T06:54:09;80341.31;;;-145.10;58.07
56334;BME280;42240;53.626;55.886;2024-01-15T06:55:41;80343.28;;;-145.10;57.94
56334;BME280;42240;53.626;55.886;2024-01-15T06:57:14;80361.09;;;-145.10;59.00
56334;BME280;42240;53.626;55.886;2024-01-15T06:58:47;80452.16;;;-145.10;58.88
56334;BME280;42240;53.626;55.886;2024-01-15T07:00:20;80446.22;;;-145.10;59.26
56334;BME280;42240;53.626;55.886;2024-01-15T07:01:52;80454.13;;;-145.10;59.91
56334;BME280;42240;53.626;55.886;2024-01-15T07:05:17;80458.09;;;-145.10;61.32
56334;BME280;42240;53.626;55.886;2024-01-15T07:06:50;80580.81;;;-145.10;61.12
56334;BME280;42240;53.626;55.886;2024-01-15T07:08:23;80547.16;;;-145.10;62.88
56334;BME280;42240;53.626;55.886;2024-01-15T07:09:55;80515.50;;;-145.10;63.20
56334;BME280;42240;53.626;55.886;2024-01-15T07:11:28;80481.84;;;-145.10;62.83
56334;BME280;42240;53.626;55.886;2024-01-15T07:13:17;80466.00;;;-145.10;63.82
56334;BME280;42240;53.626;55.886;2024-01-15T07:14:50;80517.47;;;-145.10;63.42
56334;BME280;42240;53.626;55.886;2024-01-15T07:16:23;80497.69;;;-145.10;63.45
56334;BME280;42240;53.626;55.886;2024-01-15T07:18:09;80454.13;;;-145.10;63.66
56334;BME280;42240;53.626;55.886;2024-01-15T07:19:42;80452.16;;;-145.10;63.43
56334;BME280;42240;53.626;55.886;2024-01-15T07:21:15;80462.03;;;-145.10;63.60
56334;BME280;42240;53.626;55.886;2024-01-15T07:22:48;80428.41;;;-145.10;63.44
56334;BME280;42240;53.626;55.886;2024-01-15T07:24:20;80499.66;;;-145.10;63.98
56334;BME280;42240;53.626;55.886;2024-01-15T07:25:53;80485.81;;;-145.10;64.66
56334;BME280;42240;53.626;55.886;2024-01-15T07:27:26;80541.22;;;-145.10;64.46
56334;BME280;42240;53.626;55.886;2024-01-15T07:28:59;80481.84;;;-145.10;65.13
56334;BME280;42240;53.626;55.886;2024-01-15T07:30:49;80515.50;;;-145.10;66.63
56334;BME280;42240;53.626;55.886;2024-01-15T07:34:14;80523.41;;;-145.10;68.06
56334;BME280;42240;53.626;55.886;2024-01-15T07:35:47;80493.72;;;-145.10;67.96
56334;BME280;42240;53.626;55.886;2024-01-15T07:37:21;80549.13;;;-145.10;68.05
56334;BME280;42240;53.626;55.886;2024-01-15T07:38:55;80537.25;;;-145.10;70.25
56334;BME280;42240;53.626;55.886;2024-01-15T07:40:29;80543.19;;;-145.10;70.11
56334;BME280;42240;53.626;55.886;2024-01-15T07:42:20;80487.78;;;-145.10;70.96
56334;BME280;42240;53.626;55.886;2024-01-15T07:43:53;80454.13;;;-145.10;70.74
56334;BME280;42240;53.626;55.886;2024-01-15T07:45:26;80438.28;;;-145.10;71.06
56334;BME280;42240;53.626;55.886;2024-01-15T07:46:59;80456.13;;;-145.10;70.77
56334;BME280;42240;53.626;55.886;2024-01-15T07:48:50;80489.75;;;-145.10;69.97
56334;BME280;42240;53.626;55.886;2024-01-15T07:50:28;80452.16;;;-145.10;70.26
56334;BME280;42240;53.626;55.886;2024-01-15T07:52:01;80430.38;;;-145.10;70.07
56334;BME280;42240;53.626;55.886;2024-01-15T07:53:34;80489.75;;;-145.10;69.21
56334;BME280;42240;53.626;55.886;2024-01-15T07:55:08;80473.94;;;-145.10;69.88
56334;BME280;42240;53.626;55.886;2024-01-15T07:56:56;80458.09;;;-145.10;70.42
56334;BME280;42240;53.626;55.886;2024-01-15T07:58:29;80497.69;;;-145.10;69.98
56334;BME280;42240;53.626;55.886;2024-01-15T08:00:03;80430.38;;;-145.10;70.00
56334;BME280;42240;53.626;55.886;2024-01-15T08:03:46;80430.38;;;-145.10;68.19
56334;BME280;42240;53.626;55.886;2024-01-15T08:05:19;80444.22;;;-145.10;68.78
56334;BME280;42240;53.626;55.886;2024-01-15T08:07:10;80462.03;;;-145.10;69.15
56334;BME280;42240;53.626;55.886;2024-01-15T08:08:43;80448.19;;;-145.10;69.23
56334;BME280;42240;53.626;55.886;2024-01-15T08:10:16;80456.13;;;-145.10;68.83
56334;BME280;42240;53.626;55.886;2024-01-15T08:12:07;80477.88;;;-145.10;69.23
56334;BME280;42240;53.626;55.886;2024-01-15T08:13:40;80525.38;;;-145.10;70.67
56334;BME280;42240;53.626;55.886;2024-01-15T08:15:13;80469.97;;;-145.10;70.19
56334;BME280;42240;53.626;55.886;2024-01-15T08:16:46;80458.09;;;-145.10;69.91
56334;BME280;42240;53.626;55.886;2024-01-15T08:18:19;80444.22;;;-145.10;70.58
56334;BME280;42240;53.626;55.886;2024-01-15T08:19:54;80412.56;;;-145.10;70.53
56334;BME280;42240;53.626;55.886;2024-01-15T08:21:27;80388.81;;;-145.10;70.47
56334;BME280;42240;53.626;55.886;2024-01-15T08:23:04;80428.41;;;-145.10;70.52
56334;BME280;42240;53.626;55.886;2024-01-15T08:24:37;80414.53;;;-145.10;70.61
56334;BME280;42240;53.626;55.886;2024-01-15T08:26:10;80422.47;;;-145.10;71.39
56334;BME280;42240;53.626;55.886;2024-01-15T08:27:43;80410.59;;;-145.10;71.36
56334;BME280;42240;53.626;55.886;2024-01-15T08:29:16;80436.31;;;-145.10;71.26
56334;BME280;42240;53.626;55.886;2024-01-15T08:30:51;80440.28;;;-145.10;72.59
56334;BME280;42240;53.626;55.886;2024-01-15T08:32:24;80426.41;;;-145.10;72.74